This is the latest recevied weather packets stored in our database for station/object DG1UDO-13. If no packets are shown the sender has not sent any weather packets the latest 10 day(s).
| Time | Temp. | Humidity | Pressure | Rain* | Wind** | Luminosity | Snow |
|---|---|---|---|---|---|---|---|
| 1777401301 | 12.22° C | 42% | 1028.1 hPa | - | - | - | - |
| 1777399501 | 13.33° C | 38% | 1027.8 hPa | - | - | - | - |
| 1777397700 | 13.89° C | 41% | 1027.6 hPa | - | - | - | - |
| 1777395900 | 14.44° C | 39% | 1027.2 hPa | - | - | - | - |
| 1777394101 | 15° C | 40% | 1027 hPa | - | - | - | - |
| 1777392301 | 15° C | 40% | 1027.2 hPa | - | - | - | - |
| 1777390501 | 15° C | 43% | 1027 hPa | - | - | - | - |
| 1777388701 | 15° C | 41% | 1027.2 hPa | - | - | - | - |
| 1777386901 | 15.56° C | 36% | 1027.3 hPa | - | - | - | - |
| 1777385101 | 15.56° C | 34% | 1027.5 hPa | - | - | - | - |
| 1777383300 | 15.56° C | 35% | 1027.6 hPa | - | - | - | - |
| 1777381501 | 15° C | 35% | 1027.7 hPa | - | - | - | - |
| 1777379701 | 15.56° C | 33% | 1027.8 hPa | - | - | - | - |
| 1777377901 | 14.44° C | 36% | 1028.1 hPa | - | - | - | - |
| 1777376101 | 14.44° C | 36% | 1027.8 hPa | - | - | - | - |
| 1777374301 | 13.89° C | 37% | 1028.1 hPa | - | - | - | - |
| 1777372501 | 13.33° C | 36% | 1028.2 hPa | - | - | - | - |
| 1777370701 | 13.33° C | 36% | 1028.4 hPa | - | - | - | - |
| 1777368901 | 12.78° C | 36% | 1028.3 hPa | - | - | - | - |
| 1777367101 | 12.22° C | 37% | 1028.5 hPa | - | - | - | - |
| 1777365301 | 12.22° C | 40% | 1028.1 hPa | - | - | - | - |
| 1777363501 | 11.67° C | 39% | 1027.9 hPa | - | - | - | - |
| 1777361701 | 11.11° C | 47% | 1027.7 hPa | - | - | - | - |
| 1777359901 | 8.89° C | 54% | 1027.9 hPa | - | - | - | - |
| 1777358100 | 7.78° C | 63% | 1027.7 hPa | - | - | - | - |
* Rain since midnight (hover to see other rain measurements)
** Current wind speed in m/s (hover to see current wind gust speed)